Portada
METAR-TAF:

METAR-TAF

Aeroports :

Aeroport Internacional Maiquetía Simón Bolívar

Caracas, Veneçuela

latitud: 10-36N, longitud: 066-59W, altitud: 43 m

Observació

L'informe es va fer fa 45 minuts, a les 18:00 UTC
Temperatura 29°C
Humitat 66%
Pressió 1012 hPa
Visibilitat 10 km o més
Núvols disperses a una alçada de 1600 ft

METAR: SVMI 241800Z 1004KT 9999 SCT016 29/22 Q1012

Hora: 14:45 (18:45 UTC)

Pronòstic

L'informe es va fer fa 2 hores i 45 minuts, a les 16:00 UTC
Pronòstic vàlid del 24 a les 18 UTC al 25 a les 18 UTC
Vent 6 kt del Nord-Est
Visibilitat 10 km o més
Escasses núvols a una alçada de 1600 ft
Evolucionant progressivament
l' 24 a les 18 UTC al 24 a les 22 UTC
Vent 4 kt del Est
Cel ennuvolat a una alçada de 1600 ft

TAF: SVMI 241600Z 2418/2518 05006KT 9999 FEW016 TX31/2418Z TN25/2408Z BECMG 2418/2422 09004KT BKN016

Observacions i pronòstics meteorològics de més de 4000 aeroports (METAR i TAF).

Les estacions disponibles són els punts grocs i vermells al mapa.

Posi el ratolí al punt desitjat per veure el nom de l'estació.

Feu clic per veure les observacions i els pronòstics meteorològics.

Per canviar el mapa: feu clic els botons verds amb una creu de color negre per apropar; al botó verd amb un guió per allunyar la imatge; o en les fletxes verdes per a mapes adjacents.


METAR-TAF: